Time;durP1;ratioP1;P1;durP2;ratioP2;P2;SDS_P1;SDS_P2;PMS_P1;PMS_P2;Temp;Humidity;BMP_temperature;BMP_pressure;BME280_temperature;BME280_humidity;BME280_pressure;Samples;Min_cycle;Max_cycle;Signal;HPM_P1;HPM_P2
2021/08/02 00:00:13;;;;;;;3.38;1.77;;;;;;;;;;5024939;28;20141;-89
2021/08/02 00:02:58;;;;;;;4.90;2.05;;;;;;;;;;5008832;28;20064;-89
2021/08/02 00:05:25;;;;;;;4.43;1.80;;;;;;;;;;4998737;28;20112;-89
2021/08/02 00:08:01;;;;;;;5.03;1.88;;;;;;;;;;5002479;28;20084;-88
2021/08/02 00:10:32;;;;;;;5.38;1.90;;;;;;;;;;5025978;28;20568;-89
2021/08/02 00:13:06;;;;;;;4.95;1.80;;;;;;;;;;5009540;28;20074;-89
2021/08/02 00:15:32;;;;;;;4.22;2.05;;;;;;;;;;5006707;28;20068;-89
2021/08/02 00:17:59;;;;;;;4.28;1.90;;;;;;;;;;4998693;28;20045;-88
2021/08/02 00:20:31;;;;;;;6.68;1.75;;;;;;;;;;5013909;28;20449;-89
2021/08/02 00:22:59;;;;;;;5.78;1.80;;;;;;;;;;5016065;28;20049;-89
2021/08/02 00:25:25;;;;;;;4.70;1.73;;;;;;;;;;5027301;28;20061;-88
2021/08/02 00:27:52;;;;;;;5.63;1.92;;;;;;;;;;5026932;28;20456;-89
2021/08/02 00:30:19;;;;;;;7.05;1.90;;;;;;;;;;5026946;28;20061;-89
2021/08/02 00:32:45;;;;;;;5.20;2.13;;;;;;;;;;5028987;28;20045;-89
2021/08/02 00:35:11;;;;;;;5.63;1.70;;;;;;;;;;5025767;28;20053;-89
2021/08/02 00:37:55;;;;;;;6.50;1.92;;;;;;;;;;5016569;28;20062;-89
2021/08/02 00:40:36;;;;;;;7.13;2.03;;;;;;;;;;5026886;28;20053;-88
2021/08/02 00:43:11;;;;;;;5.53;1.92;;;;;;;;;;5018735;28;20064;-89
2021/08/02 00:45:38;;;;;;;;;;;;;;;;;;5014784;28;23050;-89
2021/08/02 00:48:11;;;;;;;4.80;2.05;;;;;;;;;;5018842;28;19928;-89
2021/08/02 00:50:48;;;;;;;4.20;1.83;;;;;;;;;;5019931;28;20060;-89
2021/08/02 00:53:22;;;;;;;6.00;1.98;;;;;;;;;;5024985;28;20084;-90
2021/08/02 00:55:50;;;;;;;4.35;2.08;;;;;;;;;;5015008;28;20505;-88
2021/08/02 00:58:17;;;;;;;4.57;1.80;;;;;;;;;;5017395;28;20095;-87
2021/08/02 01:00:44;;;;;;;7.30;1.83;;;;;;;;;;5016690;28;20092;-89
2021/08/02 01:03:11;;;;;;;5.57;2.20;;;;;;;;;;5002715;28;20129;-89
2021/08/02 01:05:41;;;;;;;6.35;2.13;;;;;;;;;;5030523;28;20060;-89
2021/08/02 01:08:09;;;;;;;7.47;2.50;;;;;;;;;;5020326;28;20068;-88
2021/08/02 01:10:36;;;;;;;6.10;1.98;;;;;;;;;;5020371;28;20493;-89
2021/08/02 01:13:04;;;;;;;5.47;2.00;;;;;;;;;;5002526;28;20061;-89
2021/08/02 01:15:31;;;;;;;5.60;2.10;;;;;;;;;;5033347;28;20128;-89
2021/08/02 01:17:57;;;;;;;8.80;2.40;;;;;;;;;;5022787;28;20042;-89
2021/08/02 01:20:24;;;;;;;6.10;2.50;;;;;;;;;;5022684;28;20410;-89
2021/08/02 01:22:51;;;;;;;4.95;2.15;;;;;;;;;;5012251;28;20509;-89
2021/08/02 01:25:36;;;;;;;7.47;2.50;;;;;;;;;;5021215;28;20128;-89
2021/08/02 01:28:14;;;;;;;5.65;2.00;;;;;;;;;;4999143;28;20512;-90
2021/08/02 01:30:53;;;;;;;4.68;2.00;;;;;;;;;;5020642;28;20053;-89
2021/08/02 01:33:28;;;;;;;6.03;1.92;;;;;;;;;;5032745;28;20511;-88
2021/08/02 01:35:54;;;;;;;;;;;;;;;;;;5017469;28;20045;-89
2021/08/02 01:38:21;;;;;;;5.35;2.00;;;;;;;;;;5021522;28;19921;-89
2021/08/02 01:40:47;;;;;;;4.72;2.10;;;;;;;;;;5021993;28;20056;-88
2021/08/02 01:43:13;;;;;;;4.65;1.80;;;;;;;;;;5021769;28;20072;-88
2021/08/02 01:45:51;;;;;;;4.30;1.90;;;;;;;;;;5024000;28;20050;-89
2021/08/02 01:48:18;;;;;;;7.55;2.25;;;;;;;;;;4955666;28;20057;-88
2021/08/02 01:50:56;;;;;;;5.55;2.33;;;;;;;;;;5012999;28;20129;-89
2021/08/02 01:53:31;;;;;;;5.22;1.80;;;;;;;;;;5008463;28;20196;-88
2021/08/02 01:56:03;;;;;;;4.25;1.55;;;;;;;;;;5016546;28;20409;-88
2021/08/02 01:58:33;;;;;;;5.70;1.80;;;;;;;;;;5013007;28;20054;-88
2021/08/02 02:01:01;;;;;;;5.45;2.03;;;;;;;;;;5003340;28;20046;-89
2021/08/02 02:03:27;;;;;;;7.47;1.90;;;;;;;;;;5023347;28;20061;-89
2021/08/02 02:05:58;;;;;;;5.32;1.70;;;;;;;;;;5013272;28;20123;-89
2021/08/02 02:08:29;;;;;;;5.20;2.00;;;;;;;;;;5019618;28;20138;-89
2021/08/02 02:10:56;;;;;;;5.93;2.00;;;;;;;;;;5017657;28;20054;-87
2021/08/02 02:13:29;;;;;;;3.63;1.60;;;;;;;;;;5007468;28;20065;-89
2021/08/02 02:15:58;;;;;;;4.90;1.50;;;;;;;;;;5009121;28;20100;-89
2021/08/02 02:18:25;;;;;;;5.50;1.85;;;;;;;;;;5014877;28;20072;-89
2021/08/02 02:20:53;;;;;;;5.78;1.70;;;;;;;;;;5013669;28;20131;-89
2021/08/02 02:23:20;;;;;;;4.75;1.70;;;;;;;;;;5009015;28;20405;-89
2021/08/02 02:25:46;;;;;;;6.32;1.73;;;;;;;;;;5020190;28;20096;-88
2021/08/02 02:28:13;;;;;;;6.30;2.05;;;;;;;;;;5011982;28;20386;-89
2021/08/02 02:30:41;;;;;;;3.15;1.52;;;;;;;;;;5016363;28;20116;-88
2021/08/02 02:33:08;;;;;;;4.22;1.75;;;;;;;;;;5022936;28;20057;-89
2021/08/02 02:35:40;;;;;;;4.35;1.70;;;;;;;;;;5018826;28;20115;-88
2021/08/02 02:38:08;;;;;;;4.72;1.60;;;;;;;;;;5032458;28;20045;-88
2021/08/02 02:40:34;;;;;;;6.20;1.67;;;;;;;;;;5010746;28;20121;-88
2021/08/02 02:43:00;;;;;;;5.25;2.22;;;;;;;;;;5016974;28;20107;-89
2021/08/02 02:45:27;;;;;;;5.75;1.95;;;;;;;;;;5019182;28;20425;-88
2021/08/02 02:47:54;;;;;;;7.78;2.67;;;;;;;;;;5018357;28;20041;-89
2021/08/02 02:50:23;;;;;;;4.82;1.50;;;;;;;;;;5009047;28;20523;-89
2021/08/02 02:52:50;;;;;;;4.75;1.70;;;;;;;;;;5021949;28;20053;-87
2021/08/02 02:55:16;;;;;;;4.55;1.80;;;;;;;;;;5015139;28;20498;-88
2021/08/02 02:57:43;;;;;;;7.63;2.80;;;;;;;;;;5017741;28;20068;-88
2021/08/02 03:00:09;;;;;;;10.65;2.45;;;;;;;;;;5018890;28;20054;-88
2021/08/02 03:02:36;;;;;;;4.05;1.85;;;;;;;;;;5024110;28;20056;-88
2021/08/02 03:05:04;;;;;;;5.80;1.90;;;;;;;;;;5016679;28;20125;-89
2021/08/02 03:07:31;;;;;;;5.00;1.90;;;;;;;;;;5016119;28;20132;-88
2021/08/02 03:09:58;;;;;;;5.85;1.90;;;;;;;;;;5022277;28;20133;-88
2021/08/02 03:12:24;;;;;;;4.93;1.77;;;;;;;;;;5010161;28;20069;-89
2021/08/02 03:14:50;;;;;;;5.13;1.70;;;;;;;;;;5017584;28;20103;-89
2021/08/02 03:17:16;;;;;;;7.38;2.10;;;;;;;;;;5016465;28;20103;-88
2021/08/02 03:19:43;;;;;;;4.45;1.77;;;;;;;;;;5015884;28;20115;-89
2021/08/02 03:22:19;;;;;;;7.25;2.28;;;;;;;;;;5016137;28;20068;-88
2021/08/02 03:24:47;;;;;;;5.60;2.00;;;;;;;;;;5012368;28;20056;-88
2021/08/02 03:27:13;;;;;;;6.53;2.00;;;;;;;;;;5010525;28;20064;-88
2021/08/02 03:29:43;;;;;;;4.85;2.13;;;;;;;;;;5011204;28;20557;-88
2021/08/02 03:32:12;;;;;;;8.55;2.13;;;;;;;;;;5006193;28;20545;-88
2021/08/02 03:34:39;;;;;;;5.60;2.03;;;;;;;;;;5015085;28;20848;-88
2021/08/02 03:37:11;;;;;;;7.45;2.50;;;;;;;;;;5016263;28;20081;-88
2021/08/02 03:39:38;;;;;;;5.43;2.20;;;;;;;;;;5018579;28;20045;-88
2021/08/02 03:42:04;;;;;;;5.15;2.17;;;;;;;;;;5031574;28;20072;-88
2021/08/02 03:44:32;;;;;;;6.80;2.10;;;;;;;;;;5001986;28;20611;-88
2021/08/02 03:46:58;;;;;;;6.35;2.33;;;;;;;;;;5042412;28;20073;-88
2021/08/02 03:49:24;;;;;;;7.07;2.05;;;;;;;;;;5007911;28;20058;-89
2021/08/02 03:51:54;;;;;;;4.15;2.15;;;;;;;;;;5015156;28;20078;-88
2021/08/02 03:54:20;;;;;;;6.30;2.08;;;;;;;;;;5019560;28;20539;-89
2021/08/02 03:56:47;;;;;;;6.28;2.20;;;;;;;;;;5018641;28;20053;-89
2021/08/02 03:59:13;;;;;;;6.97;3.13;;;;;;;;;;5014921;28;20042;-88
2021/08/02 04:01:43;;;;;;;5.50;2.38;;;;;;;;;;5018698;28;20507;-88
2021/08/02 04:04:10;;;;;;;7.32;2.65;;;;;;;;;;5020638;28;20076;-88
2021/08/02 04:06:37;;;;;;;7.80;2.42;;;;;;;;;;5011930;28;20049;-88
2021/08/02 04:09:05;;;;;;;6.05;2.70;;;;;;;;;;5010942;28;20046;-89
2021/08/02 04:11:36;;;;;;;4.85;2.40;;;;;;;;;;4995655;28;20128;-88
2021/08/02 04:14:02;;;;;;;7.25;2.47;;;;;;;;;;5020639;28;20033;-88
2021/08/02 04:16:28;;;;;;;6.78;2.55;;;;;;;;;;5022094;28;20642;-89
2021/08/02 04:18:55;;;;;;;6.63;2.58;;;;;;;;;;5011492;28;20077;-88
2021/08/02 04:21:21;;;;;;;4.72;2.60;;;;;;;;;;5017287;28;20084;-90
2021/08/02 04:23:47;;;;;;;8.23;2.72;;;;;;;;;;5015630;28;20056;-89
2021/08/02 04:26:14;;;;;;;5.28;2.50;;;;;;;;;;5027857;28;20052;-88
2021/08/02 04:28:41;;;;;;;7.90;2.70;;;;;;;;;;5019638;28;20412;-89
2021/08/02 04:31:07;;;;;;;5.93;2.58;;;;;;;;;;5005310;28;20057;-87
2021/08/02 04:33:34;;;;;;;12.15;3.10;;;;;;;;;;5008740;28;20061;-88
2021/08/02 04:36:02;;;;;;;6.20;2.55;;;;;;;;;;5018201;28;20394;-89
2021/08/02 04:38:29;;;;;;;8.30;2.90;;;;;;;;;;5017253;28;20053;-89
2021/08/02 04:40:55;;;;;;;5.68;2.55;;;;;;;;;;5020968;28;20422;-88
2021/08/02 04:43:25;;;;;;;5.28;2.65;;;;;;;;;;5036535;28;20062;-89
2021/08/02 04:45:51;;;;;;;5.85;2.28;;;;;;;;;;5015928;28;20054;-88
2021/08/02 04:48:18;;;;;;;9.30;3.65;;;;;;;;;;4999568;28;20050;-88
2021/08/02 04:50:45;;;;;;;5.90;2.40;;;;;;;;;;5016247;28;20132;-89
2021/08/02 04:53:12;;;;;;;6.38;2.60;;;;;;;;;;5020318;28;20119;-89
2021/08/02 04:55:38;;;;;;;8.63;2.58;;;;;;;;;;5012707;28;20054;-89
2021/08/02 04:58:04;;;;;;;8.50;3.15;;;;;;;;;;5013349;28;20313;-88
2021/08/02 05:00:31;;;;;;;9.00;2.67;;;;;;;;;;5017454;28;20091;-88
2021/08/02 05:02:57;;;;;;;11.40;4.75;;;;;;;;;;5016555;28;20054;-88
2021/08/02 05:05:24;;;;;;;8.98;3.38;;;;;;;;;;5019397;28;20129;-89
2021/08/02 05:07:50;;;;;;;10.02;3.05;;;;;;;;;;5020092;28;20053;-87
2021/08/02 05:10:16;;;;;;;15.45;4.25;;;;;;;;;;5010772;28;20042;-88
2021/08/02 05:12:43;;;;;;;5.00;2.15;;;;;;;;;;5007145;28;20111;-87
2021/08/02 05:15:10;;;;;;;7.88;2.83;;;;;;;;;;4996427;28;20528;-88
2021/08/02 05:17:36;;;;;;;8.10;2.30;;;;;;;;;;5018120;28;20041;-89
2021/08/02 05:20:03;;;;;;;5.50;2.22;;;;;;;;;;5009121;28;20054;-88
2021/08/02 05:22:32;;;;;;;9.15;2.47;;;;;;;;;;5010006;28;20045;-88
2021/08/02 05:24:59;;;;;;;6.32;2.10;;;;;;;;;;5018701;28;20092;-88
2021/08/02 05:27:25;;;;;;;7.40;1.90;;;;;;;;;;5010094;28;20077;-88
2021/08/02 05:29:51;;;;;;;7.57;2.17;;;;;;;;;;5013082;28;20489;-89
2021/08/02 05:32:17;;;;;;;7.40;2.10;;;;;;;;;;5008913;28;20080;-88
2021/08/02 05:34:44;;;;;;;5.75;2.20;;;;;;;;;;5011863;28;20084;-87
2021/08/02 05:37:11;;;;;;;8.00;2.35;;;;;;;;;;5013051;28;20062;-88
2021/08/02 05:39:38;;;;;;;9.93;2.47;;;;;;;;;;5008828;28;20060;-89
2021/08/02 05:42:04;;;;;;;8.05;2.90;;;;;;;;;;5013139;28;20053;-89
2021/08/02 05:44:31;;;;;;;5.47;2.00;;;;;;;;;;5024419;28;20108;-90
2021/08/02 05:46:57;;;;;;;12.63;4.55;;;;;;;;;;4996670;28;20053;-89
2021/08/02 05:49:23;;;;;;;12.85;4.65;;;;;;;;;;4988016;28;20049;-91
2021/08/02 05:51:54;;;;;;;8.15;3.00;;;;;;;;;;4998133;28;20521;-89
2021/08/02 05:54:20;;;;;;;8.00;2.78;;;;;;;;;;5007465;28;20435;-89
2021/08/02 05:56:50;;;;;;;6.20;2.20;;;;;;;;;;5020720;28;20056;-89
2021/08/02 05:59:16;;;;;;;5.57;1.90;;;;;;;;;;5023048;28;20125;-90
2021/08/02 06:01:43;;;;;;;5.40;2.10;;;;;;;;;;4987423;28;20050;-89
2021/08/02 06:04:09;;;;;;;6.15;2.17;;;;;;;;;;5020527;28;20111;-90
2021/08/02 06:06:38;;;;;;;6.63;2.42;;;;;;;;;;4996839;28;20111;-89
2021/08/02 06:09:10;;;;;;;6.35;1.70;;;;;;;;;;4984565;28;20054;-89
2021/08/02 06:11:56;;;;;;;3.53;1.50;;;;;;;;;;4934141;28;20046;-90
2021/08/02 06:14:23;;;;;;;5.45;1.83;;;;;;;;;;4950138;28;20189;-90
2021/08/02 06:16:50;;;;;;;6.18;1.70;;;;;;;;;;4983796;28;20053;-90
2021/08/02 06:19:16;;;;;;;7.20;1.90;;;;;;;;;;4992803;28;20049;-90
2021/08/02 06:21:42;;;;;;;6.45;1.80;;;;;;;;;;5018789;28;20107;-89
2021/08/02 06:24:09;;;;;;;4.82;1.60;;;;;;;;;;4990756;28;20050;-90
2021/08/02 06:26:37;;;;;;;2.75;1.30;;;;;;;;;;5003980;28;20579;-91
2021/08/02 06:29:03;;;;;;;5.05;1.65;;;;;;;;;;4994124;28;20058;-90
2021/08/02 06:31:29;;;;;;;4.75;1.70;;;;;;;;;;4965311;28;20108;-89
2021/08/02 06:33:56;;;;;;;5.60;1.80;;;;;;;;;;4961028;28;20043;-92
2021/08/02 06:36:32;;;;;;;8.07;2.10;;;;;;;;;;4981748;28;20054;-91
2021/08/02 06:39:01;;;;;;;3.60;1.60;;;;;;;;;;5012772;28;20096;-90
2021/08/02 06:41:30;;;;;;;5.47;1.83;;;;;;;;;;5029272;28;20490;-89
2021/08/02 06:43:57;;;;;;;4.35;1.63;;;;;;;;;;5011354;28;20083;-89
2021/08/02 06:46:23;;;;;;;4.13;1.33;;;;;;;;;;5016782;28;20061;-89
2021/08/02 06:48:49;;;;;;;7.15;2.10;;;;;;;;;;5017888;28;20061;-87
2021/08/02 06:51:18;;;;;;;4.20;1.50;;;;;;;;;;5014427;28;20053;-88
2021/08/02 06:53:44;;;;;;;4.18;1.50;;;;;;;;;;5019764;28;20313;-88
2021/08/02 06:56:10;;;;;;;4.32;1.60;;;;;;;;;;5020320;28;20061;-88
2021/08/02 06:58:37;;;;;;;5.88;1.60;;;;;;;;;;5024241;28;20525;-88
2021/08/02 07:01:03;;;;;;;4.28;1.80;;;;;;;;;;5018129;28;20040;-88
2021/08/02 07:03:29;;;;;;;5.60;2.15;;;;;;;;;;5018126;28;20080;-90
2021/08/02 07:05:55;;;;;;;5.20;1.67;;;;;;;;;;5011737;28;20080;-89
2021/08/02 07:08:22;;;;;;;4.88;1.70;;;;;;;;;;4999812;28;20131;-90
2021/08/02 07:10:48;;;;;;;3.08;1.50;;;;;;;;;;5007343;28;20056;-90
2021/08/02 07:13:15;;;;;;;5.97;1.60;;;;;;;;;;5016001;28;20052;-90
2021/08/02 07:15:44;;;;;;;5.05;1.70;;;;;;;;;;4998695;28;20067;-89
2021/08/02 07:18:10;;;;;;;5.70;1.33;;;;;;;;;;5005848;28;20064;-90
2021/08/02 07:20:37;;;;;;;5.55;1.50;;;;;;;;;;4991672;28;20085;-89
2021/08/02 07:23:03;;;;;;;3.25;1.42;;;;;;;;;;4977250;28;20204;-89
2021/08/02 07:25:29;;;;;;;3.40;1.23;;;;;;;;;;5013236;28;20053;-88
2021/08/02 07:27:55;;;;;;;4.38;1.27;;;;;;;;;;5020552;28;20054;-90
2021/08/02 07:30:22;;;;;;;5.45;1.50;;;;;;;;;;4977933;28;20498;-89
2021/08/02 07:32:51;;;;;;;4.03;1.30;;;;;;;;;;5011607;28;20129;-93
2021/08/02 07:35:19;;;;;;;6.90;1.30;;;;;;;;;;4961009;28;20502;-90
2021/08/02 07:37:45;;;;;;;3.30;1.15;;;;;;;;;;5004789;28;20049;-88
2021/08/02 07:40:11;;;;;;;5.90;1.48;;;;;;;;;;5012691;28;20061;-90
2021/08/02 07:42:38;;;;;;;5.43;1.60;;;;;;;;;;5013025;28;20104;-90
2021/08/02 07:45:04;;;;;;;7.03;1.20;;;;;;;;;;5006813;28;20132;-91
2021/08/02 07:47:30;;;;;;;6.18;1.30;;;;;;;;;;5000908;28;20045;-90
2021/08/02 07:49:57;;;;;;;6.72;1.63;;;;;;;;;;5008905;28;20056;-92
2021/08/02 07:52:26;;;;;;;4.80;1.20;;;;;;;;;;5006335;28;20240;-90
2021/08/02 07:54:52;;;;;;;7.15;1.50;;;;;;;;;;5010701;28;20049;-88
2021/08/02 07:57:21;;;;;;;3.65;1.20;;;;;;;;;;5024438;28;20042;-90
2021/08/02 07:59:47;;;;;;;4.80;1.13;;;;;;;;;;5007683;28;20125;-92
2021/08/02 08:02:13;;;;;;;4.15;1.20;;;;;;;;;;5004285;28;20049;-91
2021/08/02 08:04:41;;;;;;;2.45;1.02;;;;;;;;;;5012169;28;20057;-91
2021/08/02 08:07:07;;;;;;;4.05;1.20;;;;;;;;;;5034672;28;20132;-90
2021/08/02 08:09:34;;;;;;;5.57;1.40;;;;;;;;;;4980753;28;20054;-92
2021/08/02 08:12:01;;;;;;;2.85;1.17;;;;;;;;;;5002052;28;20054;-91
2021/08/02 08:14:27;;;;;;;4.47;1.20;;;;;;;;;;4990084;28;20049;-90
2021/08/02 08:16:53;;;;;;;4.85;1.40;;;;;;;;;;4984355;28;20058;-91
2021/08/02 08:19:19;;;;;;;4.47;1.00;;;;;;;;;;4994926;28;20064;-89
2021/08/02 08:21:46;;;;;;;4.00;1.20;;;;;;;;;;5021143;28;20060;-92
2021/08/02 08:24:14;;;;;;;5.70;1.15;;;;;;;;;;4984475;28;20062;-90
2021/08/02 08:26:43;;;;;;;4.40;1.40;;;;;;;;;;4975132;28;20076;-90
2021/08/02 08:29:11;;;;;;;3.40;1.20;;;;;;;;;;4994334;28;20072;-91
2021/08/02 08:31:38;;;;;;;2.45;1.23;;;;;;;;;;5003965;28;20508;-90
2021/08/02 08:34:04;;;;;;;4.93;1.80;;;;;;;;;;4983485;28;20054;-91
2021/08/02 08:36:31;;;;;;;4.95;1.50;;;;;;;;;;4977713;28;20050;-90
2021/08/02 08:38:57;;;;;;;4.45;1.05;;;;;;;;;;4969886;28;20398;-90
2021/08/02 08:41:23;;;;;;;5.88;1.42;;;;;;;;;;5014572;28;20084;-90
2021/08/02 08:43:51;;;;;;;4.78;1.30;;;;;;;;;;5008389;28;20053;-89
2021/08/02 08:46:21;;;;;;;5.47;1.38;;;;;;;;;;4970937;28;20042;-92
2021/08/02 08:48:52;;;;;;;6.05;1.98;;;;;;;;;;5003606;28;20050;-92
2021/08/02 08:51:20;;;;;;;5.15;1.70;;;;;;;;;;4965218;28;20053;-93
2021/08/02 08:53:49;;;;;;;5.88;1.90;;;;;;;;;;4987832;28;20065;-93
2021/08/02 08:56:21;;;;;;;4.07;1.30;;;;;;;;;;4971399;28;20053;-92
2021/08/02 08:58:49;;;;;;;3.35;1.25;;;;;;;;;;4933389;28;20239;-92
2021/08/02 09:01:16;;;;;;;5.15;1.40;;;;;;;;;;5010186;28;20077;-91
2021/08/02 09:03:52;;;;;;;4.18;1.40;;;;;;;;;;5008669;28;20065;-91
2021/08/02 09:06:19;;;;;;;5.53;1.60;;;;;;;;;;5017106;28;20053;-91
2021/08/02 09:08:46;;;;;;;4.00;1.27;;;;;;;;;;5016018;28;20049;-92
2021/08/02 09:11:31;;;;;;;3.47;1.38;;;;;;;;;;4949962;28;20133;-92
2021/08/02 09:13:58;;;;;;;4.23;1.10;;;;;;;;;;5010453;28;20053;-93
2021/08/02 09:16:26;;;;;;;2.10;0.80;;;;;;;;;;5010156;28;20346;-93
2021/08/02 09:18:58;;;;;;;2.55;1.13;;;;;;;;;;4987933;28;20075;-92
2021/08/02 09:21:30;;;;;;;5.38;1.38;;;;;;;;;;4999308;28;20065;-92
2021/08/02 09:23:59;;;;;;;2.78;1.10;;;;;;;;;;4990454;28;20107;-92
2021/08/02 09:26:29;;;;;;;3.28;1.23;;;;;;;;;;5000777;28;20395;-93
2021/08/02 09:28:56;;;;;;;4.78;1.17;;;;;;;;;;5013488;28;20041;-94
2021/08/02 09:31:31;;;;;;;4.63;1.20;;;;;;;;;;5031501;28;20057;-94
2021/08/02 09:34:00;;;;;;;1.33;0.80;;;;;;;;;;5032625;28;20041;-93
2021/08/02 09:36:35;;;;;;;3.53;1.10;;;;;;;;;;5031729;28;20065;-94
2021/08/02 09:39:05;;;;;;;2.22;1.05;;;;;;;;;;5031880;28;20049;-92
2021/08/02 09:41:32;;;;;;;4.80;1.02;;;;;;;;;;5031002;28;20050;-90
2021/08/02 09:43:58;;;;;;;6.13;1.33;;;;;;;;;;5030738;28;20049;-94
2021/08/02 09:46:24;;;;;;;4.20;1.50;;;;;;;;;;5031780;28;20108;-96
2021/08/02 09:48:50;;;;;;;5.50;1.45;;;;;;;;;;5031945;28;20080;-93
2021/08/02 09:51:17;;;;;;;3.35;1.42;;;;;;;;;;5021996;28;20133;-92
2021/08/02 09:53:54;;;;;;;6.40;1.40;;;;;;;;;;5025398;28;20077;-93
2021/08/02 09:56:22;;;;;;;5.38;1.58;;;;;;;;;;5009076;28;20050;-92
2021/08/02 09:58:48;;;;;;;5.18;1.35;;;;;;;;;;5004088;28;20046;-94
2021/08/02 10:01:16;;;;;;;5.00;1.48;;;;;;;;;;5012020;28;20132;-93
2021/08/02 10:03:42;;;;;;;5.55;1.50;;;;;;;;;;5009950;28;20057;-94
2021/08/02 10:06:10;;;;;;;5.68;1.23;;;;;;;;;;5031271;28;20140;-93
2021/08/02 10:08:36;;;;;;;3.83;1.25;;;;;;;;;;5031145;28;20050;-94
2021/08/02 10:11:03;;;;;;;4.53;1.30;;;;;;;;;;5031842;28;20080;-94
2021/08/02 10:13:31;;;;;;;4.03;1.60;;;;;;;;;;5030791;28;20497;-91
2021/08/02 10:15:58;;;;;;;6.32;1.35;;;;;;;;;;5027646;28;20116;-94
2021/08/02 10:18:26;;;;;;;4.25;1.38;;;;;;;;;;4993167;28;20050;-93
2021/08/02 10:21:02;;;;;;;4.75;1.33;;;;;;;;;;4996406;28;20050;-92
2021/08/02 10:23:29;;;;;;;5.03;1.50;;;;;;;;;;5030885;28;20076;-90
2021/08/02 10:25:55;;;;;;;5.57;1.00;;;;;;;;;;5030437;28;20141;-90
2021/08/02 10:28:21;;;;;;;3.70;1.00;;;;;;;;;;5022659;28;20104;-91
2021/08/02 10:30:48;;;;;;;3.10;1.20;;;;;;;;;;5030799;28;20374;-92
2021/08/02 10:33:14;;;;;;;5.00;1.00;;;;;;;;;;5016545;28;20061;-91
2021/08/02 10:35:45;;;;;;;3.30;0.98;;;;;;;;;;5022119;28;20132;-92
2021/08/02 10:38:15;;;;;;;1.95;0.90;;;;;;;;;;5031107;28;20053;-92
2021/08/02 10:40:47;;;;;;;3.92;1.00;;;;;;;;;;5019366;28;20061;-91
2021/08/02 10:43:13;;;;;;;1.35;0.80;;;;;;;;;;5040624;28;20132;-91
2021/08/02 10:45:41;;;;;;;3.33;0.95;;;;;;;;;;5007690;28;20073;-89
2021/08/02 10:48:08;;;;;;;5.13;1.55;;;;;;;;;;5030604;28;20073;-90
2021/08/02 10:50:41;;;;;;;4.57;0.90;;;;;;;;;;5030641;28;20075;-89
2021/08/02 10:53:13;;;;;;;1.48;0.70;;;;;;;;;;5029777;28;20049;-90
2021/08/02 10:55:59;;;;;;;4.95;1.02;;;;;;;;;;5031074;28;20053;-88
2021/08/02 10:58:29;;;;;;;2.42;0.90;;;;;;;;;;5012226;28;20132;-88
2021/08/02 11:00:59;;;;;;;3.28;1.00;;;;;;;;;;5020263;28;20065;-90
2021/08/02 11:03:46;;;;;;;1.42;0.70;;;;;;;;;;5009127;28;20058;-89
2021/08/02 11:06:13;;;;;;;1.73;1.02;;;;;;;;;;5009189;28;20045;-87
2021/08/02 11:08:55;;;;;;;2.78;0.80;;;;;;;;;;5012785;28;20057;-87
2021/08/02 11:11:23;;;;;;;1.63;0.70;;;;;;;;;;5018504;28;20065;-88
2021/08/02 11:13:50;;;;;;;2.05;0.75;;;;;;;;;;5021587;28;20872;-86
2021/08/02 11:16:17;;;;;;;0.88;0.63;;;;;;;;;;5027697;28;20053;-88
2021/08/02 11:18:44;;;;;;;2.95;0.90;;;;;;;;;;5024747;28;20068;-88
2021/08/02 11:21:20;;;;;;;1.05;0.63;;;;;;;;;;5022873;28;20062;-88
2021/08/02 11:23:46;;;;;;;1.40;0.80;;;;;;;;;;5007018;28;20049;-89
2021/08/02 11:26:12;;;;;;;2.08;0.80;;;;;;;;;;5040488;28;20128;-92
2021/08/02 11:28:45;;;;;;;1.85;0.70;;;;;;;;;;5025374;28;20057;-90
2021/08/02 11:31:12;;;;;;;1.10;0.73;;;;;;;;;;5014144;28;20057;-91
2021/08/02 11:33:41;;;;;;;1.60;0.70;;;;;;;;;;5025950;28;20496;-89
2021/08/02 11:36:13;;;;;;;3.10;0.80;;;;;;;;;;5025838;28;20104;-90
2021/08/02 11:38:40;;;;;;;1.40;0.70;;;;;;;;;;5008547;28;20050;-90
2021/08/02 11:41:06;;;;;;;0.88;0.70;;;;;;;;;;5019818;28;20052;-88
2021/08/02 11:43:45;;;;;;;1.85;0.70;;;;;;;;;;5010295;28;20053;-88
2021/08/02 11:46:13;;;;;;;2.20;0.70;;;;;;;;;;5007682;28;20077;-89
2021/08/02 11:48:42;;;;;;;2.63;0.88;;;;;;;;;;5006810;28;20505;-88
2021/08/02 11:51:10;;;;;;;2.78;0.80;;;;;;;;;;5009695;28;20133;-89
2021/08/02 11:53:37;;;;;;;2.15;0.70;;;;;;;;;;5007772;28;20124;-89
2021/08/02 11:56:03;;;;;;;3.53;0.80;;;;;;;;;;5008849;28;20133;-89
2021/08/02 11:58:48;;;;;;;3.17;1.00;;;;;;;;;;5009110;28;20068;-88
2021/08/02 12:01:14;;;;;;;4.20;0.90;;;;;;;;;;5024401;28;20061;-89
2021/08/02 12:03:45;;;;;;;4.28;1.00;;;;;;;;;;5027048;28;20049;-89
2021/08/02 12:06:12;;;;;;;5.03;1.00;;;;;;;;;;5027751;28;20057;-89
2021/08/02 12:08:47;;;;;;;5.50;1.10;;;;;;;;;;5017742;28;20501;-89
2021/08/02 12:11:14;;;;;;;2.55;1.10;;;;;;;;;;5025231;28;20049;-89
2021/08/02 12:13:44;;;;;;;3.15;0.90;;;;;;;;;;4994009;28;20062;-89
2021/08/02 12:16:11;;;;;;;1.45;0.85;;;;;;;;;;5005485;28;20064;-89
2021/08/02 12:18:38;;;;;;;3.85;0.90;;;;;;;;;;4991046;28;20117;-90
2021/08/02 12:21:22;;;;;;;2.72;1.02;;;;;;;;;;5008949;28;20050;-89
2021/08/02 12:23:49;;;;;;;4.33;1.10;;;;;;;;;;4997258;28;20470;-90
2021/08/02 12:26:19;;;;;;;5.53;3.15;;;;;;;;;;5019638;28;20097;-90
2021/08/02 12:28:46;;;;;;;2.28;1.13;;;;;;;;;;5015235;28;20136;-89
2021/08/02 12:31:13;;;;;;;3.47;0.93;;;;;;;;;;5021164;28;20050;-89
2021/08/02 12:33:40;;;;;;;5.18;1.00;;;;;;;;;;5008055;28;20057;-90
2021/08/02 12:36:06;;;;;;;3.65;0.90;;;;;;;;;;5007168;28;20054;-89
2021/08/02 12:38:32;;;;;;;2.95;0.95;;;;;;;;;;5008519;28;20053;-89
2021/08/02 12:40:59;;;;;;;3.53;1.00;;;;;;;;;;5006261;28;20065;-90
2021/08/02 12:43:25;;;;;;;2.13;1.02;;;;;;;;;;5007636;28;20405;-85
2021/08/02 12:45:51;;;;;;;3.40;0.80;;;;;;;;;;5006840;28;20054;-85
2021/08/02 12:48:17;;;;;;;2.55;0.70;;;;;;;;;;5008354;28;20057;-86
2021/08/02 12:50:44;;;;;;;2.53;0.70;;;;;;;;;;5006900;28;20049;-86
2021/08/02 12:53:10;;;;;;;3.72;0.93;;;;;;;;;;5008357;28;20493;-86
2021/08/02 12:55:36;;;;;;;1.27;0.70;;;;;;;;;;5008199;28;20560;-86
2021/08/02 12:58:02;;;;;;;2.17;0.70;;;;;;;;;;5012305;28;20091;-86
2021/08/02 13:00:28;;;;;;;1.77;0.63;;;;;;;;;;5018521;28;20173;-86
2021/08/02 13:02:55;;;;;;;0.90;0.60;;;;;;;;;;5031894;28;20045;-85
2021/08/02 13:05:21;;;;;;;0.98;0.57;;;;;;;;;;5024313;28;20060;-84
2021/08/02 13:07:47;;;;;;;3.97;0.88;;;;;;;;;;5019054;28;20045;-86
2021/08/02 13:10:14;;;;;;;1.58;0.70;;;;;;;;;;5024147;28;20037;-86
2021/08/02 13:12:40;;;;;;;2.65;0.70;;;;;;;;;;5020267;28;20069;-86
2021/08/02 13:15:06;;;;;;;3.65;0.80;;;;;;;;;;4998558;28;20042;-86
2021/08/02 13:17:33;;;;;;;1.08;0.60;;;;;;;;;;5022708;28;20137;-87
2021/08/02 13:19:59;;;;;;;2.17;0.80;;;;;;;;;;5030454;28;20053;-86
2021/08/02 13:22:41;;;;;;;1.35;0.60;;;;;;;;;;5021407;28;20452;-84
2021/08/02 13:27:53;;;;;;;2.65;0.80;;;;;;;;;;5021926;28;20877;-85
2021/08/02 13:30:20;;;;;;;1.52;0.70;;;;;;;;;;5012971;28;20505;-86
2021/08/02 13:32:46;;;;;;;2.28;0.90;;;;;;;;;;5011904;28;20137;-86
2021/08/02 13:35:12;;;;;;;2.65;0.90;;;;;;;;;;5030670;28;20049;-85
2021/08/02 13:37:38;;;;;;;3.40;1.00;;;;;;;;;;5030360;28;20052;-86
2021/08/02 13:40:05;;;;;;;3.50;0.90;;;;;;;;;;5021901;28;20056;-85
2021/08/02 13:42:31;;;;;;;2.25;1.00;;;;;;;;;;5022442;28;20042;-86
2021/08/02 13:44:58;;;;;;;3.22;1.00;;;;;;;;;;5028701;28;20053;-86
2021/08/02 13:47:27;;;;;;;4.20;0.80;;;;;;;;;;5027750;28;20085;-85
2021/08/02 13:49:54;;;;;;;2.15;0.80;;;;;;;;;;5031502;28;20674;-85
2021/08/02 13:52:20;;;;;;;4.30;0.82;;;;;;;;;;5032341;28;20061;-85
2021/08/02 13:54:46;;;;;;;2.85;0.90;;;;;;;;;;5031808;28;20533;-86
2021/08/02 13:57:13;;;;;;;1.33;0.60;;;;;;;;;;5032021;28;20049;-86
2021/08/02 13:59:39;;;;;;;1.17;0.60;;;;;;;;;;5022862;28;20053;-86
2021/08/02 14:02:05;;;;;;;5.07;1.50;;;;;;;;;;5030596;28;20053;-86
2021/08/02 14:04:32;;;;;;;5.68;0.90;;;;;;;;;;5020429;28;20133;-85
2021/08/02 14:06:59;;;;;;;2.58;0.70;;;;;;;;;;5022792;28;20050;-93
2021/08/02 14:09:25;;;;;;;2.38;0.85;;;;;;;;;;4995898;28;20053;-91
2021/08/02 14:11:59;;;;;;;1.20;0.70;;;;;;;;;;5013288;28;20124;-89
2021/08/02 14:14:29;;;;;;;2.38;0.95;;;;;;;;;;5031881;28;20096;-92
2021/08/02 14:16:57;;;;;;;1.80;0.88;;;;;;;;;;5030270;28;20183;-92
2021/08/02 14:19:26;;;;;;;2.83;0.80;;;;;;;;;;5031606;28;20060;-91
2021/08/02 14:21:57;;;;;;;2.90;1.00;;;;;;;;;;5030158;28;20804;-92
2021/08/02 14:24:25;;;;;;;3.80;1.15;;;;;;;;;;5022009;28;20076;-93
2021/08/02 14:26:52;;;;;;;1.58;0.85;;;;;;;;;;5021261;28;20061;-93
2021/08/02 14:29:18;;;;;;;2.42;0.90;;;;;;;;;;5020382;28;20468;-91
2021/08/02 14:31:45;;;;;;;4.32;0.98;;;;;;;;;;5031986;28;20056;-92
2021/08/02 14:34:12;;;;;;;2.38;1.23;;;;;;;;;;5012418;28;20085;-92
2021/08/02 14:36:41;;;;;;;2.35;0.95;;;;;;;;;;5010082;28;20181;-90
2021/08/02 14:39:07;;;;;;;2.58;1.10;;;;;;;;;;5014843;28;20052;-93
2021/08/02 14:41:38;;;;;;;1.67;1.08;;;;;;;;;;5021799;28;20132;-89
2021/08/02 14:44:06;;;;;;;5.18;1.05;;;;;;;;;;5021284;28;20046;-92
2021/08/02 14:46:33;;;;;;;2.85;0.90;;;;;;;;;;5012853;28;20050;-91
2021/08/02 14:49:00;;;;;;;2.95;1.13;;;;;;;;;;5014903;28;20506;-90
2021/08/02 14:51:27;;;;;;;6.57;1.10;;;;;;;;;;5020896;28;20164;-91